createdAt,value
2022-10-14T00:00:42.801Z,64.87
2022-10-14T00:03:09.398Z,64.80
2022-10-14T00:05:40.577Z,64.75
2022-10-14T00:08:09.653Z,64.84
2022-10-14T00:10:39.738Z,65.03
2022-10-14T00:13:06.780Z,64.96
2022-10-14T00:15:40.700Z,64.96
2022-10-14T00:18:09.644Z,64.87
2022-10-14T00:20:36.594Z,64.97
2022-10-14T00:23:03.538Z,65.05
2022-10-14T00:25:30.510Z,65.11
2022-10-14T00:27:57.055Z,65.10
2022-10-14T00:30:23.722Z,65.10
2022-10-14T00:32:50.409Z,64.98
2022-10-14T00:35:17.190Z,64.76
2022-10-14T00:37:43.921Z,65.05
2022-10-14T00:40:10.993Z,65.13
2022-10-14T00:42:37.546Z,65.07
2022-10-14T00:45:19.839Z,65.22
2022-10-14T00:47:50.055Z,65.19
2022-10-14T00:50:17.408Z,65.28
2022-10-14T00:52:45.184Z,65.22
2022-10-14T00:55:19.245Z,65.19
2022-10-14T00:57:46.288Z,65.30
2022-10-14T01:00:16.387Z,65.29
2022-10-14T01:02:43.171Z,65.15
2022-10-14T01:05:13.318Z,65.24
2022-10-14T01:07:48.968Z,65.17
2022-10-14T01:10:31.175Z,65.36
2022-10-14T01:13:11.020Z,65.17
2022-10-14T01:15:49.914Z,65.45
2022-10-14T01:18:47.083Z,65.22
2022-10-14T01:21:22.499Z,65.28
2022-10-14T01:24:17.275Z,65.32
2022-10-14T01:27:17.915Z,65.30
2022-10-14T01:30:23.118Z,65.31
2022-10-14T01:32:55.187Z,65.29
2022-10-14T01:35:41.819Z,65.46
2022-10-14T01:38:16.922Z,65.26
2022-10-14T01:41:00.503Z,65.26
2022-10-14T01:43:31.107Z,65.33
2022-10-14T01:46:00.553Z,65.36
2022-10-14T01:48:29.261Z,65.33
2022-10-14T01:50:59.256Z,65.27
2022-10-14T01:53:32.141Z,65.26
2022-10-14T01:56:02.147Z,65.21
2022-10-14T01:58:33.920Z,65.42
2022-10-14T02:01:06.334Z,65.37
2022-10-14T02:03:44.151Z,65.50
2022-10-14T02:06:39.133Z,65.48
2022-10-14T02:09:19.096Z,65.40
2022-10-14T02:12:03.186Z,65.39
2022-10-14T02:14:44.250Z,65.41
2022-10-14T02:17:25.530Z,65.40
2022-10-14T02:20:04.606Z,65.59
2022-10-14T02:22:39.252Z,65.43
2022-10-14T02:25:15.872Z,65.23
2022-10-14T02:27:45.514Z,65.45
2022-10-14T02:30:13.141Z,65.34
2022-10-14T02:32:41.603Z,65.36
2022-10-14T02:35:14.903Z,65.37
2022-10-14T02:37:42.108Z,65.40
2022-10-14T02:40:17.868Z,65.38
2022-10-14T02:42:44.451Z,65.29
2022-10-14T02:45:13.157Z,65.14
2022-10-14T02:47:40.258Z,65.34
2022-10-14T02:50:07.604Z,65.23
2022-10-14T02:52:34.361Z,65.19
2022-10-14T02:55:01.151Z,65.40
2022-10-14T02:57:28.130Z,65.43
2022-10-14T02:59:56.817Z,65.44
2022-10-14T03:02:24.849Z,65.46
2022-10-14T03:04:51.630Z,65.52
2022-10-14T03:07:18.427Z,65.50
2022-10-14T03:09:49.096Z,65.80
2022-10-14T03:12:17.248Z,65.57
2022-10-14T03:14:44.729Z,65.44
2022-10-14T03:17:14.701Z,65.42
2022-10-14T03:19:43.637Z,65.52
2022-10-14T03:22:12.726Z,65.44
2022-10-14T03:24:40.569Z,65.35
2022-10-14T03:27:27.485Z,65.17
2022-10-14T03:29:59.854Z,65.38
2022-10-14T03:32:26.714Z,65.36
2022-10-14T03:35:28.500Z,65.31
2022-10-14T03:37:56.608Z,65.33
2022-10-14T03:40:30.716Z,65.33
2022-10-14T03:43:01.199Z,65.32
2022-10-14T03:45:35.549Z,65.32
2022-10-14T03:48:03.774Z,65.31
2022-10-14T03:50:30.642Z,65.47
2022-10-14T03:52:57.686Z,65.19
2022-10-14T03:55:34.419Z,65.30
2022-10-14T03:58:02.754Z,65.53
2022-10-14T04:00:30.875Z,65.58
2022-10-14T04:03:15.251Z,65.58
2022-10-14T04:05:43.626Z,65.40
2022-10-14T04:08:15.805Z,65.43
2022-10-14T04:10:53.662Z,65.50
2022-10-14T04:13:20.683Z,65.51
2022-10-14T04:15:47.590Z,65.38
2022-10-14T04:18:21.105Z,65.24
2022-10-14T04:20:49.413Z,64.78
2022-10-14T04:23:18.612Z,64.52
2022-10-14T04:25:48.898Z,64.67
2022-10-14T04:28:16.164Z,64.97
2022-10-14T04:30:57.358Z,65.17
2022-10-14T04:33:28.864Z,65.37
2022-10-14T04:36:04.387Z,65.31
2022-10-14T04:38:35.751Z,65.57
2022-10-14T04:41:06.508Z,65.59
2022-10-14T04:43:34.409Z,65.88
2022-10-14T04:46:15.603Z,65.57
2022-10-14T04:48:42.246Z,65.68
2022-10-14T04:51:09.736Z,65.71
2022-10-14T04:53:53.344Z,65.71
2022-10-14T04:56:33.887Z,65.86
2022-10-14T04:59:03.159Z,65.69
2022-10-14T05:01:48.379Z,65.88
2022-10-14T05:04:15.809Z,65.61
2022-10-14T05:06:44.903Z,65.78
2022-10-14T05:09:14.476Z,65.53
2022-10-14T05:11:41.257Z,65.60
2022-10-14T05:14:07.845Z,65.59
2022-10-14T05:16:36.802Z,65.74
2022-10-14T05:19:03.741Z,65.66
2022-10-14T05:21:32.215Z,65.68
2022-10-14T05:24:21.393Z,65.57
2022-10-14T05:26:49.099Z,65.45
2022-10-14T05:29:16.004Z,65.81
2022-10-14T05:31:42.600Z,65.79
2022-10-14T05:34:47.726Z,65.79
2022-10-14T05:37:24.816Z,65.69
2022-10-14T05:39:52.967Z,65.87
2022-10-14T05:42:23.497Z,65.62
2022-10-14T05:44:53.459Z,65.86
2022-10-14T05:47:20.478Z,65.91
2022-10-14T05:49:51.387Z,65.78
2022-10-14T05:52:19.077Z,65.78
2022-10-14T05:54:45.871Z,65.79
2022-10-14T05:57:17.603Z,65.76
2022-10-14T05:59:44.192Z,65.71
2022-10-14T06:02:12.372Z,65.74
2022-10-14T06:04:42.695Z,65.64
2022-10-14T06:07:10.433Z,65.70
2022-10-14T06:09:38.832Z,65.72
2022-10-14T06:12:05.999Z,65.66
2022-10-14T06:14:33.353Z,65.70
2022-10-14T06:17:00.650Z,65.67
2022-10-14T06:19:27.428Z,65.55
2022-10-14T06:21:54.902Z,65.89
2022-10-14T06:24:21.764Z,65.65
2022-10-14T06:26:48.629Z,65.67
2022-10-14T06:29:16.099Z,65.59
2022-10-14T06:31:43.379Z,65.78
2022-10-14T06:34:09.990Z,65.67
2022-10-14T06:36:37.045Z,65.61
2022-10-14T06:39:05.086Z,65.68
2022-10-14T06:41:32.824Z,65.80
2022-10-14T06:43:59.523Z,65.45
2022-10-14T06:46:26.213Z,65.62
2022-10-14T06:48:52.879Z,65.67
2022-10-14T06:51:19.488Z,65.53
2022-10-14T06:53:46.094Z,65.71
2022-10-14T06:56:12.744Z,65.56
2022-10-14T06:58:39.565Z,65.67
2022-10-14T07:01:07.751Z,65.75
2022-10-14T07:03:36.678Z,65.73
2022-10-14T07:06:05.162Z,65.65
2022-10-14T07:08:32.332Z,65.66
2022-10-14T07:10:58.912Z,65.65
2022-10-14T07:13:25.551Z,65.62
2022-10-14T07:15:52.427Z,65.68
2022-10-14T07:18:19.422Z,65.77
2022-10-14T07:20:46.754Z,65.72
2022-10-14T07:23:13.840Z,65.62
2022-10-14T07:25:40.452Z,65.44
2022-10-14T07:28:07.378Z,65.06
2022-10-14T07:30:34.360Z,64.70
2022-10-14T07:33:01.118Z,65.17
2022-10-14T07:35:28.116Z,65.38
2022-10-14T07:37:55.464Z,65.35
2022-10-14T07:40:22.546Z,65.44
2022-10-14T07:42:49.363Z,65.43
2022-10-14T07:45:18.327Z,65.45
2022-10-14T07:47:47.759Z,65.39
2022-10-14T07:50:14.268Z,65.43
2022-10-14T07:52:40.775Z,65.74
2022-10-14T07:55:07.903Z,65.65
2022-10-14T07:57:34.650Z,65.45
2022-10-14T08:00:01.513Z,65.37
2022-10-14T08:02:38.628Z,65.40
2022-10-14T08:05:33.043Z,65.54
2022-10-14T08:07:52.567Z,65.45
2022-10-14T08:10:19.336Z,65.45
2022-10-14T08:12:46.288Z,65.42
2022-10-14T08:15:12.941Z,65.52
2022-10-14T08:17:39.791Z,65.58
2022-10-14T08:20:07.000Z,65.37
2022-10-14T08:22:33.703Z,65.65
2022-10-14T08:25:00.304Z,65.48
2022-10-14T08:27:26.909Z,65.45
2022-10-14T08:29:54.582Z,65.42
2022-10-14T08:32:23.471Z,65.38
2022-10-14T08:34:50.548Z,65.38
2022-10-14T08:37:17.054Z,65.50
2022-10-14T08:39:43.933Z,65.51
2022-10-14T08:42:29.480Z,65.38
2022-10-14T08:45:09.040Z,65.35
2022-10-14T08:47:45.958Z,65.32
2022-10-14T08:50:43.551Z,65.42
2022-10-14T08:53:28.331Z,65.37
2022-10-14T08:56:00.467Z,65.36
2022-10-14T08:58:47.364Z,65.37
2022-10-14T09:01:23.010Z,65.36
2022-10-14T09:03:52.885Z,65.45
2022-10-14T09:06:31.932Z,65.39
2022-10-14T09:09:16.568Z,65.28
2022-10-14T09:11:48.719Z,65.40
2022-10-14T09:14:29.311Z,65.34
2022-10-14T09:17:06.427Z,65.32
2022-10-14T09:19:38.477Z,65.35
2022-10-14T09:22:13.341Z,65.46
2022-10-14T09:24:41.814Z,65.24
2022-10-14T09:27:23.757Z,65.33
2022-10-14T09:29:54.659Z,65.20
2022-10-14T09:32:35.473Z,65.42
2022-10-14T09:35:02.693Z,65.37
2022-10-14T09:37:34.942Z,65.17
2022-10-14T09:40:10.671Z,65.27
2022-10-14T09:42:51.730Z,65.17
2022-10-14T09:45:22.724Z,65.19
2022-10-14T09:47:56.242Z,65.45
2022-10-14T09:50:27.850Z,65.13
2022-10-14T09:53:10.909Z,65.28
2022-10-14T09:55:46.838Z,65.14
2022-10-14T09:58:17.848Z,65.35
2022-10-14T10:00:46.332Z,65.24
2022-10-14T10:03:32.512Z,65.08
2022-10-14T10:06:10.750Z,65.14
2022-10-14T10:08:41.324Z,65.02
2022-10-14T10:11:13.783Z,65.02
2022-10-14T10:13:46.824Z,65.06
2022-10-14T10:16:39.917Z,64.83
2022-10-14T10:19:29.311Z,64.80
2022-10-14T10:22:15.036Z,65.01
2022-10-14T10:24:41.822Z,64.84
2022-10-14T10:27:29.169Z,64.98
2022-10-14T10:29:56.274Z,65.09
2022-10-14T10:32:43.420Z,65.10
2022-10-14T10:35:28.130Z,64.90
2022-10-14T10:38:13.771Z,65.15
2022-10-14T10:41:00.142Z,65.04
2022-10-14T10:43:26.961Z,65.18
2022-10-14T10:45:59.591Z,64.89
2022-10-14T10:48:39.987Z,64.92
2022-10-14T10:51:12.743Z,65.02
2022-10-14T10:54:01.396Z,64.92
2022-10-14T12:06:34.458Z,65.94
2022-10-14T12:09:08.862Z,64.99
2022-10-14T12:11:41.510Z,64.86
2022-10-14T12:14:20.050Z,65.04
2022-10-14T12:16:48.690Z,65.08
2022-10-14T12:19:29.539Z,65.08
2022-10-14T12:22:09.336Z,65.09
2022-10-14T12:24:48.120Z,65.19
2022-10-14T12:27:15.798Z,65.16
2022-10-14T12:29:52.684Z,65.21
2022-10-14T12:32:27.294Z,65.02
2022-10-14T12:34:55.569Z,64.99
2022-10-14T12:37:28.821Z,65.12
2022-10-14T12:40:05.726Z,64.93
2022-10-14T12:42:44.578Z,64.75
2022-10-14T12:45:26.198Z,64.96
2022-10-14T12:48:19.240Z,65.04
2022-10-14T12:50:48.532Z,64.98
2022-10-14T12:53:18.101Z,64.89
2022-10-14T12:55:49.346Z,65.00
2022-10-14T12:58:24.785Z,65.27
2022-10-14T13:01:07.244Z,64.91
2022-10-14T13:03:43.985Z,64.83
2022-10-14T13:06:31.086Z,64.98
2022-10-14T13:09:31.898Z,65.03
2022-10-14T13:11:58.627Z,65.00
2022-10-14T13:14:35.476Z,64.99
2022-10-14T13:17:04.195Z,64.98
2022-10-14T13:19:33.526Z,64.89
2022-10-14T13:22:05.595Z,64.77
2022-10-14T13:24:44.129Z,65.00
2022-10-14T13:27:22.806Z,64.84
2022-10-14T13:29:52.502Z,64.98
2022-10-14T13:32:40.131Z,64.75
2022-10-14T13:35:30.894Z,64.89
2022-10-14T13:38:00.645Z,64.89
2022-10-14T13:40:36.585Z,64.77
2022-10-14T13:43:15.078Z,64.92
2022-10-14T13:45:45.386Z,64.78
2022-10-14T13:48:41.186Z,64.69
2022-10-14T13:51:24.666Z,64.62
2022-10-14T13:54:20.587Z,64.79
2022-10-14T13:57:38.384Z,64.79
2022-10-14T14:02:44.585Z,64.53
2022-10-14T14:05:19.883Z,64.47
2022-10-14T14:08:34.926Z,64.67
2022-10-14T14:10:51.410Z,64.87
2022-10-14T14:13:24.718Z,64.60
2022-10-14T14:15:53.449Z,64.73
2022-10-14T14:18:49.314Z,64.56
2022-10-14T14:21:26.577Z,64.65
2022-10-14T14:23:55.935Z,64.65
2022-10-14T14:26:28.743Z,64.59
2022-10-14T14:28:55.353Z,64.72
2022-10-14T14:31:30.318Z,64.49
2022-10-14T14:34:04.747Z,64.71
2022-10-14T14:36:50.075Z,64.68
2022-10-14T14:39:26.579Z,65.12
2022-10-14T14:41:55.870Z,64.93
2022-10-14T14:44:26.652Z,64.96
2022-10-14T14:46:58.062Z,64.81
2022-10-14T14:49:35.668Z,64.53
2022-10-14T14:52:03.817Z,64.39
2022-10-14T14:54:31.149Z,64.29
2022-10-14T14:56:57.872Z,63.90
2022-10-14T14:59:36.344Z,63.71
2022-10-14T15:02:21.113Z,63.56
2022-10-14T15:05:00.257Z,63.35
2022-10-14T15:07:28.003Z,63.45
2022-10-14T15:09:57.854Z,63.54
2022-10-14T15:12:28.187Z,63.63
2022-10-14T15:14:59.640Z,63.33
2022-10-14T15:17:34.376Z,63.33
2022-10-14T15:20:29.116Z,63.46
2022-10-14T15:22:55.971Z,63.29
2022-10-14T15:25:29.303Z,63.28
2022-10-14T15:28:00.611Z,63.25
2022-10-14T15:30:39.135Z,62.99
2022-10-14T15:33:16.469Z,63.09
2022-10-14T15:35:45.412Z,62.86
2022-10-14T15:38:16.283Z,62.79
2022-10-14T15:40:43.677Z,62.68
2022-10-14T15:43:17.719Z,62.63
2022-10-14T15:46:08.340Z,62.84
2022-10-14T15:48:35.285Z,63.14
2022-10-14T15:51:02.076Z,62.86
2022-10-14T15:53:29.518Z,63.08
2022-10-14T15:55:56.101Z,62.81
2022-10-14T15:58:22.666Z,62.69
2022-10-14T16:00:49.394Z,62.83
2022-10-14T16:03:17.690Z,63.02
2022-10-14T16:05:44.358Z,62.96
2022-10-14T16:08:14.735Z,63.01
2022-10-14T16:10:45.670Z,62.63
2022-10-14T16:13:13.129Z,62.92
2022-10-14T16:15:42.477Z,62.46
2022-10-14T16:18:09.100Z,62.72
2022-10-14T16:20:35.892Z,62.43
2022-10-14T16:23:04.574Z,62.62
2022-10-14T16:25:39.992Z,62.63
2022-10-14T16:28:09.964Z,62.65
2022-10-14T16:30:44.210Z,62.94
2022-10-14T16:35:43.308Z,63.26
2022-10-14T16:38:13.160Z,63.43
2022-10-14T16:40:39.813Z,63.33
2022-10-14T16:43:06.568Z,63.38
2022-10-14T16:45:33.347Z,63.61
2022-10-14T16:48:00.125Z,63.51
2022-10-14T16:50:26.866Z,63.51
2022-10-14T16:53:12.359Z,63.69
2022-10-14T16:55:39.352Z,64.05
2022-10-14T16:58:06.001Z,63.91
2022-10-14T17:00:32.855Z,63.92
2022-10-14T17:02:59.380Z,64.27
2022-10-14T17:05:27.074Z,64.07
2022-10-14T17:07:53.816Z,64.24
2022-10-14T17:10:21.424Z,64.55
2022-10-14T17:12:48.384Z,64.23
2022-10-14T17:15:15.069Z,64.20
2022-10-14T17:17:42.817Z,64.26
2022-10-14T17:20:09.922Z,64.62
2022-10-14T17:22:36.947Z,64.41
2022-10-14T17:25:05.134Z,64.34
2022-10-14T17:27:31.906Z,64.53
2022-10-14T17:29:59.199Z,64.56
2022-10-14T17:32:28.126Z,64.69
2022-10-14T17:34:54.908Z,64.50
2022-10-14T17:37:22.186Z,64.66
2022-10-14T17:39:49.008Z,64.98
2022-10-14T17:42:15.658Z,64.69
2022-10-14T17:44:43.733Z,64.59
2022-10-14T17:47:11.192Z,64.65
2022-10-14T17:49:37.882Z,64.64
2022-10-14T17:52:06.189Z,64.86
2022-10-14T17:54:32.873Z,64.66
2022-10-14T17:56:59.489Z,64.66
2022-10-14T17:59:26.050Z,64.76
2022-10-14T18:02:08.111Z,64.60
2022-10-14T18:04:35.026Z,64.73
2022-10-14T18:07:01.865Z,64.58
2022-10-14T18:09:28.409Z,64.71
2022-10-14T18:12:10.789Z,64.77
2022-10-14T18:14:38.933Z,64.70
2022-10-14T18:17:05.752Z,64.73
2022-10-14T18:19:32.783Z,64.68
2022-10-14T18:22:00.318Z,64.65
2022-10-14T18:24:27.129Z,64.69
2022-10-14T18:26:53.798Z,64.69
2022-10-14T18:29:20.843Z,64.74
2022-10-14T18:34:25.504Z,64.71
2022-10-14T18:36:52.246Z,64.77
2022-10-14T18:39:20.379Z,64.93
2022-10-14T18:41:47.384Z,64.76
2022-10-14T18:44:14.493Z,64.78
2022-10-14T18:46:41.307Z,64.67
2022-10-14T18:49:10.287Z,64.75
2022-10-14T18:51:39.296Z,64.93
2022-10-14T18:54:28.123Z,64.91
2022-10-14T18:56:55.683Z,64.85
2022-10-14T18:59:23.602Z,64.72
2022-10-14T19:01:53.226Z,64.81
2022-10-14T19:04:22.239Z,64.67
2022-10-14T19:06:49.793Z,64.65
2022-10-14T19:09:19.469Z,64.84
2022-10-14T19:11:47.874Z,64.71
2022-10-14T19:14:14.670Z,64.97
2022-10-14T19:16:41.654Z,64.68
2022-10-14T19:19:15.194Z,64.93
2022-10-14T19:21:43.586Z,65.05
2022-10-14T19:24:11.650Z,64.92
2022-10-14T19:26:41.709Z,65.00
2022-10-14T19:29:11.727Z,64.91
2022-10-14T19:31:39.842Z,65.02
2022-10-14T19:34:08.840Z,65.20
2022-10-14T19:36:39.512Z,64.47
2022-10-14T19:39:08.733Z,64.17
2022-10-14T19:41:43.153Z,64.40
2022-10-14T19:44:11.769Z,64.29
2022-10-14T19:46:38.740Z,64.41
2022-10-14T19:49:06.503Z,64.56
2022-10-14T19:51:34.792Z,64.49
2022-10-14T19:54:01.871Z,64.68
2022-10-14T19:56:29.518Z,64.85
2022-10-14T19:58:58.283Z,64.83
2022-10-14T20:01:28.281Z,64.70
2022-10-14T20:03:55.494Z,64.98
2022-10-14T20:06:23.522Z,65.09
2022-10-14T20:08:50.275Z,65.01
2022-10-14T20:11:19.849Z,65.03
2022-10-14T20:13:47.090Z,65.12
2022-10-14T20:16:14.542Z,65.00
2022-10-14T20:18:41.923Z,65.20
2022-10-14T20:21:11.673Z,65.07
2022-10-14T20:23:47.929Z,65.23
2022-10-14T20:26:19.649Z,65.06
2022-10-14T20:28:47.628Z,64.92
2022-10-14T20:31:20.405Z,65.12
2022-10-14T20:33:47.317Z,65.21
2022-10-14T20:36:19.966Z,65.01
2022-10-14T20:38:50.122Z,65.16
2022-10-14T20:41:22.709Z,65.13
2022-10-14T20:43:50.117Z,65.12
2022-10-14T20:46:17.279Z,65.06
2022-10-14T20:48:44.338Z,65.26
2022-10-14T20:51:13.542Z,65.14
2022-10-14T20:56:11.278Z,65.14
2022-10-14T20:58:38.571Z,65.32
2022-10-14T21:01:09.234Z,65.05
2022-10-14T21:03:36.387Z,65.10
2022-10-14T21:06:06.197Z,65.20
2022-10-14T21:08:33.044Z,65.28
2022-10-14T21:11:05.033Z,65.34
2022-10-14T21:13:33.569Z,65.36
2022-10-14T21:16:00.665Z,65.28
2022-10-14T21:18:27.753Z,65.45
2022-10-14T21:20:54.405Z,65.28
2022-10-14T21:23:21.154Z,65.17
2022-10-14T21:25:56.159Z,65.21
2022-10-14T21:28:23.366Z,65.38
2022-10-14T21:30:50.000Z,65.13
2022-10-14T21:33:16.746Z,65.25
2022-10-14T21:35:43.330Z,65.41
2022-10-14T21:38:09.949Z,65.34
2022-10-14T21:40:36.801Z,65.73
2022-10-14T21:43:03.517Z,65.54
2022-10-14T21:45:30.131Z,65.23
2022-10-14T21:50:28.480Z,65.34
2022-10-14T21:52:55.068Z,65.42
2022-10-14T21:55:21.679Z,65.31
2022-10-14T21:57:48.420Z,65.60
2022-10-14T22:00:15.099Z,65.52
2022-10-14T22:02:41.624Z,65.60
2022-10-14T22:05:08.461Z,65.56
2022-10-14T22:07:35.491Z,65.70
2022-10-14T22:10:02.261Z,65.67
2022-10-14T22:12:29.917Z,65.58
2022-10-14T22:14:56.523Z,65.72
2022-10-14T22:17:23.328Z,65.33
2022-10-14T22:19:50.561Z,65.53
2022-10-14T22:22:17.166Z,65.44
2022-10-14T22:24:43.785Z,65.57
2022-10-14T22:27:10.452Z,65.55
2022-10-14T22:29:37.805Z,65.58
2022-10-14T22:32:04.653Z,65.69
2022-10-14T22:34:31.363Z,65.48
2022-10-14T22:36:59.607Z,65.43
2022-10-14T22:39:27.144Z,65.67
2022-10-14T22:41:54.061Z,65.50
2022-10-14T22:44:20.681Z,65.48
2022-10-14T22:46:47.299Z,65.69
2022-10-14T22:49:13.967Z,65.46
2022-10-14T22:51:40.989Z,65.59
2022-10-14T22:54:08.037Z,65.51
2022-10-14T22:56:34.761Z,65.73
2022-10-14T22:59:11.739Z,65.64
2022-10-14T23:01:39.554Z,65.42
2022-10-14T23:04:06.266Z,64.97
2022-10-14T23:06:32.873Z,65.33
2022-10-14T23:09:02.840Z,65.15
2022-10-14T23:11:30.946Z,65.25
2022-10-14T23:14:00.198Z,65.29
2022-10-14T23:16:29.850Z,65.13
2022-10-14T23:18:58.307Z,65.80
2022-10-14T23:21:30.763Z,65.56
2022-10-14T23:23:59.875Z,65.45
2022-10-14T23:26:31.539Z,65.61
2022-10-14T23:28:59.478Z,65.53
2022-10-14T23:31:29.152Z,65.70
2022-10-14T23:33:58.641Z,65.75
2022-10-14T23:36:25.484Z,65.61
2022-10-14T23:38:55.278Z,65.90
2022-10-14T23:41:23.149Z,65.71
2022-10-14T23:43:51.534Z,65.92
2022-10-14T23:46:19.349Z,65.97
2022-10-14T23:48:55.338Z,65.59
2022-10-14T23:51:32.742Z,65.61
2022-10-14T23:53:59.382Z,65.83
2022-10-14T23:56:26.032Z,65.74
2022-10-14T23:58:52.727Z,65.63
